createdAt,value
2017-09-21T00:00:47.780Z,0.00
2017-09-21T00:01:47.750Z,0.00
2017-09-21T00:02:47.710Z,0.00
2017-09-21T00:03:47.695Z,0.00
2017-09-21T00:04:47.652Z,0.00
2017-09-21T00:05:47.606Z,0.00
2017-09-21T00:06:47.576Z,0.00
2017-09-21T00:07:47.548Z,0.00
2017-09-21T00:08:47.499Z,0.00
2017-09-21T00:09:47.467Z,0.00
2017-09-21T00:10:47.437Z,0.00
2017-09-21T00:11:47.413Z,0.00
2017-09-21T00:12:47.364Z,0.00
2017-09-21T00:13:47.326Z,0.00
2017-09-21T00:14:47.307Z,0.00
2017-09-21T00:15:47.262Z,0.00
2017-09-21T00:16:47.234Z,0.00
2017-09-21T00:17:47.189Z,0.00
2017-09-21T00:18:47.172Z,0.00
2017-09-21T00:19:47.122Z,0.00
2017-09-21T00:20:47.086Z,0.00
2017-09-21T00:21:47.062Z,0.00
2017-09-21T00:22:47.016Z,0.00
2017-09-21T00:23:46.988Z,0.00
2017-09-21T00:24:46.947Z,0.00
2017-09-21T00:25:46.983Z,0.00
2017-09-21T00:26:46.953Z,0.00
2017-09-21T00:27:46.911Z,0.00
2017-09-21T00:28:46.812Z,0.00
2017-09-21T00:29:46.809Z,0.00
2017-09-21T00:30:46.742Z,0.00
2017-09-21T00:31:46.713Z,0.00
2017-09-21T00:32:46.668Z,0.00
2017-09-21T00:33:46.637Z,0.00
2017-09-21T00:34:48.187Z,0.00
2017-09-21T00:35:46.564Z,0.00
2017-09-21T00:36:46.544Z,0.00
2017-09-21T00:37:46.493Z,0.00
2017-09-21T00:38:46.464Z,0.00
2017-09-21T00:39:46.441Z,0.00
2017-09-21T00:40:46.397Z,0.00
2017-09-21T00:41:46.359Z,0.00
2017-09-21T00:42:46.325Z,0.00
2017-09-21T00:43:46.285Z,0.00
2017-09-21T00:44:46.252Z,0.00
2017-09-21T00:45:46.217Z,0.00
2017-09-21T00:46:46.180Z,0.00
2017-09-21T00:47:46.150Z,0.00
2017-09-21T00:48:46.111Z,0.00
2017-09-21T00:49:46.077Z,0.00
2017-09-21T00:50:46.042Z,0.00
2017-09-21T00:51:46.006Z,0.00
2017-09-21T00:52:45.979Z,0.00
2017-09-21T00:53:45.943Z,0.00
2017-09-21T00:54:45.900Z,0.00
2017-09-21T00:55:45.868Z,0.00
2017-09-21T00:56:45.833Z,0.00
2017-09-21T00:57:45.798Z,0.00
2017-09-21T00:58:45.770Z,0.00
2017-09-21T00:59:45.727Z,0.00
2017-09-21T01:00:45.707Z,0.00
2017-09-21T01:01:45.662Z,0.00
2017-09-21T01:02:45.625Z,0.00
2017-09-21T01:03:45.596Z,0.00
2017-09-21T01:04:45.565Z,0.00
2017-09-21T01:05:45.528Z,0.00
2017-09-21T01:06:45.482Z,0.00
2017-09-21T01:07:45.448Z,0.00
2017-09-21T01:08:45.423Z,0.00
2017-09-21T01:09:45.380Z,0.00
2017-09-21T01:10:45.350Z,0.00
2017-09-21T01:11:45.311Z,0.00
2017-09-21T01:12:45.280Z,0.00
2017-09-21T01:13:45.245Z,0.00
2017-09-21T01:14:45.205Z,0.00
2017-09-21T01:15:45.185Z,0.00
2017-09-21T01:16:45.145Z,0.00
2017-09-21T01:17:45.112Z,0.00
2017-09-21T01:18:45.077Z,0.00
2017-09-21T01:19:45.031Z,0.00
2017-09-21T01:20:45.008Z,0.00
2017-09-21T01:21:44.967Z,0.00
2017-09-21T01:22:44.928Z,0.00
2017-09-21T01:23:44.892Z,0.00
2017-09-21T01:24:44.859Z,0.00
2017-09-21T01:25:44.860Z,0.00
2017-09-21T01:26:44.788Z,0.00
2017-09-21T01:27:44.757Z,0.00
2017-09-21T01:28:44.735Z,0.00
2017-09-21T01:29:44.692Z,0.00
2017-09-21T01:30:44.650Z,0.00
2017-09-21T01:31:44.625Z,0.00
2017-09-21T01:32:44.585Z,0.00
2017-09-21T01:33:44.546Z,0.00
2017-09-21T01:34:44.510Z,0.00
2017-09-21T01:35:44.482Z,0.00
2017-09-21T01:36:44.441Z,0.00
2017-09-21T01:37:44.407Z,0.00
2017-09-21T01:38:44.382Z,0.00
2017-09-21T01:39:44.338Z,0.00
2017-09-21T01:40:44.311Z,0.00
2017-09-21T01:41:44.268Z,0.00
2017-09-21T01:42:44.239Z,0.00
2017-09-21T01:43:44.199Z,0.00
2017-09-21T01:44:44.164Z,0.00
2017-09-21T01:45:44.134Z,0.00
2017-09-21T01:46:44.117Z,0.00
2017-09-21T01:47:44.060Z,0.00
2017-09-21T01:48:44.029Z,0.00
2017-09-21T01:49:43.991Z,0.00
2017-09-21T01:50:43.963Z,0.00
2017-09-21T01:51:43.922Z,0.00
2017-09-21T01:52:43.891Z,0.00
2017-09-21T01:53:43.855Z,0.00
2017-09-21T01:54:43.829Z,0.00
2017-09-21T01:55:43.783Z,0.00
2017-09-21T01:56:43.765Z,0.00
2017-09-21T01:57:43.777Z,0.00
2017-09-21T01:58:43.678Z,0.00
2017-09-21T01:59:43.644Z,0.00
2017-09-21T02:00:43.638Z,0.00
2017-09-21T02:01:43.581Z,0.00
2017-09-21T02:02:43.539Z,0.00
2017-09-21T02:03:43.515Z,0.00
2017-09-21T02:04:43.469Z,0.00
2017-09-21T02:05:43.452Z,0.00
2017-09-21T02:06:43.401Z,0.00
2017-09-21T02:07:43.385Z,0.00
2017-09-21T02:08:43.357Z,0.00
2017-09-21T02:09:43.310Z,0.00
2017-09-21T02:10:43.259Z,0.00
2017-09-21T02:11:43.230Z,0.00
2017-09-21T02:12:43.192Z,0.00
2017-09-21T02:13:43.160Z,0.00
2017-09-21T02:14:43.123Z,0.00
2017-09-21T02:15:43.091Z,0.00
2017-09-21T02:16:43.089Z,0.00
2017-09-21T02:17:43.022Z,0.00
2017-09-21T02:18:42.985Z,0.00
2017-09-21T02:19:42.972Z,0.00
2017-09-21T02:20:42.920Z,0.00
2017-09-21T02:21:42.876Z,0.00
2017-09-21T02:22:42.851Z,0.00
2017-09-21T02:23:42.810Z,0.00
2017-09-21T02:24:42.773Z,0.00
2017-09-21T02:25:42.736Z,0.00
2017-09-21T02:26:42.709Z,0.00
2017-09-21T02:27:42.667Z,0.00
2017-09-21T02:28:42.635Z,0.00
2017-09-21T02:29:42.602Z,0.00
2017-09-21T02:30:42.565Z,0.00
2017-09-21T02:31:42.558Z,0.00
2017-09-21T02:32:42.495Z,0.00
2017-09-21T02:33:44.217Z,0.00
2017-09-21T02:34:42.427Z,0.00
2017-09-21T02:35:42.391Z,0.00
2017-09-21T02:36:42.358Z,0.00
2017-09-21T02:37:42.350Z,0.00
2017-09-21T02:38:42.284Z,0.00
2017-09-21T02:39:42.254Z,0.00
2017-09-21T02:40:42.215Z,0.00
2017-09-21T02:41:42.183Z,0.00
2017-09-21T02:42:42.173Z,0.00
2017-09-21T02:43:42.141Z,0.00
2017-09-21T02:44:42.079Z,0.00
2017-09-21T02:45:42.046Z,0.00
2017-09-21T02:46:42.042Z,0.00
2017-09-21T02:47:42.003Z,0.00
2017-09-21T02:48:41.954Z,0.00
2017-09-21T02:49:41.911Z,0.00
2017-09-21T02:50:41.865Z,0.00
2017-09-21T02:51:42.326Z,0.00
2017-09-21T02:52:41.801Z,0.00
2017-09-21T02:53:41.763Z,0.00
2017-09-21T02:54:41.729Z,0.00
2017-09-21T02:55:41.695Z,0.00
2017-09-21T02:56:41.658Z,0.00
2017-09-21T02:57:41.619Z,0.00
2017-09-21T02:58:41.586Z,0.00
2017-09-21T02:59:41.552Z,0.00
2017-09-21T03:00:41.523Z,0.00
2017-09-21T03:01:41.484Z,0.00
2017-09-21T03:02:41.452Z,0.00
2017-09-21T03:03:41.420Z,0.00
2017-09-21T03:04:41.383Z,0.00
2017-09-21T03:05:41.346Z,0.00
2017-09-21T03:06:41.312Z,0.00
2017-09-21T03:07:41.282Z,0.00
2017-09-21T03:08:41.240Z,0.00
2017-09-21T03:09:41.205Z,0.00
2017-09-21T03:10:41.185Z,0.00
2017-09-21T03:11:41.143Z,0.00
2017-09-21T03:12:41.095Z,0.00
2017-09-21T03:13:41.099Z,0.00
2017-09-21T03:14:41.068Z,0.00
2017-09-21T03:15:40.992Z,0.00
2017-09-21T03:16:40.960Z,0.00
2017-09-21T03:17:40.925Z,0.00
2017-09-21T03:18:40.895Z,0.00
2017-09-21T03:19:40.857Z,0.00
2017-09-21T03:20:40.818Z,0.00
2017-09-21T03:21:40.784Z,0.00
2017-09-21T03:22:40.757Z,0.00
2017-09-21T03:23:40.712Z,0.00
2017-09-21T03:24:40.678Z,0.00
2017-09-21T03:25:40.644Z,0.00
2017-09-21T03:26:40.617Z,0.00
2017-09-21T03:27:40.577Z,0.00
2017-09-21T03:28:40.538Z,0.00
2017-09-21T03:29:40.505Z,0.00
2017-09-21T03:30:40.468Z,0.00
2017-09-21T03:31:40.447Z,0.00
2017-09-21T03:32:40.397Z,0.00
2017-09-21T03:33:40.362Z,0.00
2017-09-21T03:34:40.329Z,0.00
2017-09-21T03:35:40.291Z,0.00
2017-09-21T03:36:40.258Z,0.00
2017-09-21T03:37:40.231Z,0.00
2017-09-21T03:38:40.188Z,0.00
2017-09-21T03:39:40.151Z,0.00
2017-09-21T03:40:40.116Z,0.00
2017-09-21T03:41:40.090Z,0.00
2017-09-21T03:42:40.047Z,0.00
2017-09-21T03:43:40.013Z,0.00
2017-09-21T03:44:39.977Z,0.00
2017-09-21T03:45:40.035Z,0.00
2017-09-21T03:46:39.904Z,0.00
2017-09-21T03:47:39.870Z,0.00
2017-09-21T03:48:39.833Z,0.00
2017-09-21T03:49:39.800Z,0.00
2017-09-21T03:50:39.764Z,0.00
2017-09-21T03:51:39.742Z,0.00
2017-09-21T03:52:39.691Z,0.00
2017-09-21T03:53:39.658Z,0.00
2017-09-21T03:54:39.629Z,0.00
2017-09-21T03:55:39.589Z,0.00
2017-09-21T03:56:39.555Z,0.00
2017-09-21T03:57:39.524Z,0.00
2017-09-21T03:58:39.479Z,0.00
2017-09-21T03:59:39.445Z,0.00
2017-09-21T04:00:39.412Z,0.00
2017-09-21T04:01:39.376Z,0.00
2017-09-21T04:02:39.339Z,0.00
2017-09-21T04:03:39.307Z,0.00
2017-09-21T04:04:39.268Z,0.00
2017-09-21T04:05:39.234Z,0.00
2017-09-21T04:06:39.198Z,0.00
2017-09-21T04:07:39.171Z,0.00
2017-09-21T04:08:39.128Z,0.00
2017-09-21T04:09:39.095Z,0.00
2017-09-21T04:10:39.057Z,0.00
2017-09-21T04:11:39.030Z,0.00
2017-09-21T04:12:38.988Z,0.00
2017-09-21T04:13:38.950Z,0.00
2017-09-21T04:14:38.931Z,0.00
2017-09-21T04:15:38.880Z,0.00
2017-09-21T04:16:38.845Z,0.00
2017-09-21T04:17:38.809Z,0.00
2017-09-21T04:18:38.776Z,0.00
2017-09-21T04:19:38.739Z,0.00
2017-09-21T04:20:38.712Z,0.00
2017-09-21T04:21:38.669Z,0.00
2017-09-21T04:22:38.631Z,0.00
2017-09-21T04:23:38.599Z,4.00
2017-09-21T04:24:38.563Z,4.00
2017-09-21T04:25:38.525Z,4.00
2017-09-21T04:26:38.493Z,4.00
2017-09-21T04:27:38.456Z,4.00
2017-09-21T04:28:38.423Z,8.00
2017-09-21T04:29:38.384Z,4.00
2017-09-21T04:30:38.350Z,8.00
2017-09-21T04:31:38.319Z,8.00
2017-09-21T04:32:38.288Z,8.00
2017-09-21T04:33:38.242Z,12.00
2017-09-21T04:34:38.209Z,16.00
2017-09-21T04:35:38.175Z,16.00
2017-09-21T04:36:38.137Z,20.00
2017-09-21T04:37:38.106Z,24.00
2017-09-21T04:38:38.747Z,28.00
2017-09-21T04:39:38.034Z,32.00
2017-09-21T04:40:38.010Z,36.00
2017-09-21T04:41:37.962Z,44.00
2017-09-21T04:42:37.924Z,48.00
2017-09-21T04:43:37.893Z,52.00
2017-09-21T04:44:37.853Z,60.00
2017-09-21T04:45:37.821Z,68.00
2017-09-21T04:46:37.788Z,76.00
2017-09-21T04:47:37.750Z,84.00
2017-09-21T04:48:37.718Z,96.00
2017-09-21T04:49:37.681Z,112.00
2017-09-21T04:50:37.645Z,124.00
2017-09-21T04:51:37.609Z,144.00
2017-09-21T04:52:37.581Z,160.00
2017-09-21T04:53:37.542Z,176.00
2017-09-21T04:54:37.505Z,200.00
2017-09-21T04:55:37.476Z,224.00
2017-09-21T04:56:37.433Z,252.00
2017-09-21T04:57:37.398Z,280.00
2017-09-21T04:58:37.362Z,316.00
2017-09-21T04:59:37.326Z,356.00
2017-09-21T05:00:37.301Z,396.00
2017-09-21T05:01:37.256Z,432.00
2017-09-21T05:02:37.231Z,472.00
2017-09-21T05:03:37.188Z,508.00
2017-09-21T05:04:37.153Z,544.00
2017-09-21T05:05:37.131Z,580.00
2017-09-21T05:06:37.081Z,608.00
2017-09-21T05:07:37.045Z,644.00
2017-09-21T05:08:37.013Z,692.00
2017-09-21T05:09:36.976Z,748.00
2017-09-21T05:10:36.945Z,816.00
2017-09-21T05:11:36.904Z,888.00
2017-09-21T05:12:36.870Z,968.00
2017-09-21T05:13:36.835Z,1124.00
2017-09-21T05:14:36.797Z,1348.00
2017-09-21T05:15:36.761Z,1320.00
2017-09-21T05:16:36.731Z,1192.00
2017-09-21T05:17:36.693Z,1272.00
2017-09-21T05:18:36.665Z,1364.00
2017-09-21T05:19:36.622Z,1428.00
2017-09-21T05:20:36.592Z,1456.00
2017-09-21T05:21:36.551Z,1492.00
2017-09-21T05:22:36.515Z,1544.00
2017-09-21T05:23:36.481Z,1624.00
2017-09-21T05:24:36.447Z,1728.00
2017-09-21T05:25:36.410Z,1872.00
2017-09-21T05:26:36.377Z,2024.00
2017-09-21T05:27:36.341Z,2180.00
2017-09-21T05:28:36.307Z,2328.00
2017-09-21T05:29:36.274Z,2456.00
2017-09-21T05:30:36.234Z,2564.00
2017-09-21T05:31:36.200Z,2652.00
2017-09-21T05:32:36.162Z,2744.00
2017-09-21T05:33:36.129Z,2808.00
2017-09-21T05:34:36.104Z,2848.00
2017-09-21T05:35:36.059Z,2888.00
2017-09-21T05:36:36.031Z,2928.00
2017-09-21T05:37:35.995Z,2984.00
2017-09-21T05:38:35.959Z,3048.00
2017-09-21T05:39:35.917Z,3132.00
2017-09-21T05:40:35.882Z,3260.00
2017-09-21T05:41:35.864Z,3428.00
2017-09-21T05:42:35.816Z,3632.00
2017-09-21T05:43:35.780Z,3832.00
2017-09-21T05:44:35.741Z,4012.00
2017-09-21T05:45:35.710Z,4160.00
2017-09-21T05:46:35.677Z,4312.00
2017-09-21T05:47:35.636Z,4484.00
2017-09-21T05:48:35.603Z,4664.00
2017-09-21T05:49:35.566Z,4816.00
2017-09-21T05:50:35.536Z,4972.00
2017-09-21T05:51:35.534Z,5212.00
2017-09-21T05:52:35.459Z,5320.00
2017-09-21T05:53:35.429Z,5520.00
2017-09-21T05:54:35.391Z,5748.00
2017-09-21T05:55:35.356Z,6056.00
2017-09-21T05:56:35.322Z,7004.00
2017-09-21T05:57:35.286Z,8352.00
2017-09-21T05:58:35.247Z,8440.00
2017-09-21T05:59:35.221Z,11864.00
2017-09-21T06:00:35.189Z,12192.00
2017-09-21T06:01:35.147Z,13012.00
2017-09-21T06:02:35.111Z,13084.00
2017-09-21T06:03:35.080Z,13368.00
2017-09-21T06:04:35.042Z,13888.00
2017-09-21T06:05:35.017Z,13920.00
2017-09-21T06:06:34.973Z,13824.00
2017-09-21T06:07:34.941Z,13560.00
2017-09-21T06:08:34.939Z,13760.00
2017-09-21T06:09:34.878Z,14112.00
2017-09-21T06:10:34.837Z,13760.00
2017-09-21T06:11:34.810Z,13156.00
2017-09-21T06:12:34.776Z,12152.00
2017-09-21T06:13:34.744Z,12488.00
2017-09-21T06:14:34.709Z,9676.00
2017-09-21T06:15:34.675Z,10048.00
2017-09-21T06:16:34.643Z,9988.00
2017-09-21T06:17:34.612Z,9768.00
2017-09-21T06:18:34.582Z,9288.00
2017-09-21T06:19:34.559Z,9040.00
2017-09-21T06:20:34.515Z,8776.00
2017-09-21T06:21:34.482Z,8712.00
2017-09-21T06:22:34.448Z,8680.00
2017-09-21T06:23:34.419Z,8596.00
2017-09-21T06:24:34.384Z,8556.00
2017-09-21T06:25:34.350Z,8460.00
2017-09-21T06:26:34.317Z,8392.00
2017-09-21T06:27:34.288Z,8488.00
2017-09-21T06:28:34.257Z,8828.00
2017-09-21T06:29:34.220Z,8720.00
2017-09-21T06:30:34.184Z,9236.00
2017-09-21T06:31:34.157Z,10652.00
2017-09-21T06:32:34.124Z,11464.00
2017-09-21T06:33:34.095Z,12600.00
2017-09-21T06:34:34.058Z,12936.00
2017-09-21T06:35:34.022Z,12564.00
2017-09-21T06:36:33.986Z,12084.00
2017-09-21T06:37:33.956Z,11732.00
2017-09-21T06:38:33.929Z,11560.00
2017-09-21T06:39:33.891Z,11540.00
2017-09-21T06:40:33.862Z,11740.00
2017-09-21T06:41:33.825Z,12212.00
2017-09-21T06:42:33.791Z,12224.00
2017-09-21T06:43:33.762Z,11700.00
2017-09-21T06:44:33.734Z,11608.00
2017-09-21T06:45:33.702Z,11576.00
2017-09-21T06:46:33.689Z,11492.00
2017-09-21T06:47:33.633Z,11444.00
2017-09-21T06:48:33.601Z,11524.00
2017-09-21T06:49:34.400Z,11316.00
2017-09-21T06:50:33.538Z,10672.00
2017-09-21T06:51:33.507Z,10448.00
2017-09-21T06:52:33.475Z,10420.00
2017-09-21T06:53:33.447Z,10404.00
2017-09-21T06:54:33.415Z,10360.00
2017-09-21T06:55:33.381Z,10328.00
2017-09-21T06:56:33.351Z,10356.00
2017-09-21T06:57:33.320Z,10368.00
2017-09-21T06:58:33.292Z,10380.00
2017-09-21T06:59:33.259Z,10360.00
2017-09-21T07:00:33.228Z,10420.00
2017-09-21T07:01:33.190Z,10472.00
2017-09-21T07:02:33.165Z,10440.00
2017-09-21T07:03:33.145Z,10328.00
2017-09-21T07:04:33.096Z,10308.00
2017-09-21T07:05:33.066Z,10344.00
2017-09-21T07:06:33.043Z,10352.00
2017-09-21T07:07:33.000Z,10456.00
2017-09-21T07:08:32.971Z,10592.00
2017-09-21T07:09:32.959Z,10716.00
2017-09-21T07:10:32.921Z,10696.00
2017-09-21T07:11:32.870Z,10568.00
2017-09-21T07:12:32.840Z,10228.00
2017-09-21T07:13:32.804Z,10152.00
2017-09-21T07:14:32.799Z,10064.00
2017-09-21T07:15:32.748Z,9724.00
2017-09-21T07:16:32.716Z,9584.00
2017-09-21T07:17:32.745Z,9752.00
2017-09-21T07:18:32.659Z,10112.00
2017-09-21T07:19:32.611Z,10596.00
2017-09-21T07:20:32.661Z,10636.00
2017-09-21T07:21:32.550Z,10536.00
2017-09-21T07:22:32.547Z,11032.00
2017-09-21T07:23:32.485Z,11184.00
2017-09-21T07:24:32.448Z,12156.00
2017-09-21T07:25:32.415Z,12256.00
2017-09-21T07:26:32.385Z,10692.00
2017-09-21T07:27:32.347Z,9320.00
2017-09-21T07:28:32.321Z,9196.00
2017-09-21T07:29:32.288Z,9032.00
2017-09-21T07:30:32.249Z,8888.00
2017-09-21T07:31:32.215Z,9052.00
2017-09-21T07:32:32.187Z,9216.00
2017-09-21T07:33:32.150Z,9408.00
2017-09-21T07:34:32.122Z,9128.00
2017-09-21T07:35:32.087Z,8684.00
2017-09-21T07:36:32.055Z,8648.00
2017-09-21T07:37:32.027Z,8904.00
2017-09-21T07:38:31.986Z,9176.00
2017-09-21T07:39:31.956Z,9320.00
2017-09-21T07:40:31.923Z,9468.00
2017-09-21T07:41:31.891Z,9624.00
2017-09-21T07:42:31.867Z,9780.00
2017-09-21T07:43:31.832Z,9984.00
2017-09-21T07:44:31.793Z,10108.00
2017-09-21T07:45:31.759Z,10036.00
2017-09-21T07:46:31.738Z,9688.00
2017-09-21T07:47:31.695Z,9184.00
2017-09-21T07:48:31.663Z,8388.00
2017-09-21T07:49:31.642Z,7648.00
2017-09-21T07:50:31.607Z,7124.00
2017-09-21T07:51:31.564Z,6824.00
2017-09-21T07:52:31.530Z,6764.00
2017-09-21T07:53:31.505Z,6844.00
2017-09-21T07:54:31.466Z,6716.00
2017-09-21T07:55:31.442Z,6544.00
2017-09-21T07:56:31.400Z,6500.00
2017-09-21T07:57:31.368Z,6520.00
2017-09-21T07:58:31.339Z,6580.00
2017-09-21T07:59:31.299Z,6780.00
2017-09-21T08:00:31.269Z,7004.00
2017-09-21T08:01:31.235Z,7164.00
2017-09-21T08:02:31.201Z,7272.00
2017-09-21T08:03:31.194Z,7296.00
2017-09-21T08:04:31.155Z,7364.00
2017-09-21T08:05:31.104Z,6900.00
2017-09-21T08:06:31.067Z,6812.00
2017-09-21T08:07:31.038Z,7032.00
2017-09-21T08:08:31.011Z,7256.00
2017-09-21T08:09:30.971Z,7456.00
2017-09-21T08:10:30.934Z,7800.00
2017-09-21T08:11:30.907Z,7864.00
2017-09-21T08:12:30.868Z,8244.00
2017-09-21T08:13:30.837Z,9016.00
2017-09-21T08:14:30.811Z,9088.00
2017-09-21T08:15:30.770Z,9096.00
2017-09-21T08:16:30.740Z,9076.00
2017-09-21T08:17:30.772Z,9016.00
2017-09-21T08:18:30.782Z,8960.00
2017-09-21T08:19:30.639Z,8920.00
2017-09-21T08:20:30.605Z,8876.00
2017-09-21T08:21:30.573Z,8768.00
2017-09-21T08:22:30.586Z,8644.00
2017-09-21T08:23:30.506Z,8540.00
2017-09-21T08:24:30.478Z,8484.00
2017-09-21T08:25:30.450Z,8304.00
2017-09-21T08:26:30.405Z,8340.00
2017-09-21T08:27:30.378Z,8260.00
2017-09-21T08:28:30.340Z,7888.00
2017-09-21T08:29:30.307Z,7796.00
2017-09-21T08:30:30.272Z,7924.00
2017-09-21T08:31:30.238Z,8088.00
2017-09-21T08:32:30.211Z,8332.00
2017-09-21T08:33:30.173Z,8112.00
2017-09-21T08:34:30.149Z,8048.00
2017-09-21T08:35:30.106Z,7800.00
2017-09-21T08:36:30.081Z,7792.00
2017-09-21T08:37:30.045Z,7564.00
2017-09-21T08:38:30.003Z,7408.00
2017-09-21T08:39:29.976Z,7408.00
2017-09-21T08:40:29.942Z,7200.00
2017-09-21T08:41:29.908Z,7060.00
2017-09-21T08:42:29.882Z,7060.00
2017-09-21T08:43:29.843Z,7012.00
2017-09-21T08:44:29.814Z,7328.00
2017-09-21T08:45:29.801Z,7620.00
2017-09-21T08:46:29.747Z,7888.00
2017-09-21T08:47:29.711Z,7836.00
2017-09-21T08:48:29.674Z,7952.00
2017-09-21T08:49:29.649Z,7856.00
2017-09-21T08:50:29.621Z,7632.00
2017-09-21T08:51:29.604Z,7600.00
2017-09-21T08:52:29.553Z,8024.00
2017-09-21T08:53:29.513Z,8148.00
2017-09-21T08:54:29.478Z,8812.00
2017-09-21T08:55:29.576Z,8416.00
2017-09-21T08:56:29.414Z,8448.00
2017-09-21T08:57:29.378Z,7940.00
2017-09-21T08:58:29.362Z,8004.00
2017-09-21T08:59:29.310Z,7784.00
2017-09-21T09:00:29.292Z,7992.00
2017-09-21T09:01:29.267Z,7808.00
2017-09-21T09:02:29.211Z,8248.00
2017-09-21T09:03:29.184Z,8132.00
2017-09-21T09:04:29.146Z,8544.00
2017-09-21T09:05:29.112Z,8544.00
2017-09-21T09:06:29.127Z,8220.00
2017-09-21T09:07:29.057Z,7900.00
2017-09-21T09:08:29.140Z,8000.00
2017-09-21T09:09:29.013Z,8040.00
2017-09-21T09:10:28.955Z,7756.00
2017-09-21T09:11:28.919Z,7448.00
2017-09-21T09:12:28.886Z,7168.00
2017-09-21T09:13:28.862Z,7060.00
2017-09-21T09:14:28.817Z,7556.00
2017-09-21T09:15:28.786Z,7516.00
2017-09-21T09:16:28.760Z,7848.00
2017-09-21T09:17:28.719Z,7604.00
2017-09-21T09:18:28.687Z,7712.00
2017-09-21T09:19:28.657Z,7316.00
2017-09-21T09:20:28.623Z,7176.00
2017-09-21T09:21:28.603Z,7176.00
2017-09-21T09:22:28.569Z,7324.00
2017-09-21T09:23:28.531Z,7760.00
2017-09-21T09:24:28.490Z,8340.00
2017-09-21T09:25:28.468Z,8792.00
2017-09-21T09:26:28.431Z,8980.00
2017-09-21T09:27:28.403Z,9288.00
2017-09-21T09:28:28.363Z,9780.00
2017-09-21T09:29:28.335Z,10384.00
2017-09-21T09:30:28.295Z,10300.00
2017-09-21T09:31:28.262Z,9824.00
2017-09-21T09:32:28.229Z,9280.00
2017-09-21T09:33:28.210Z,8964.00
2017-09-21T09:34:28.194Z,8404.00
2017-09-21T09:35:28.131Z,8304.00
2017-09-21T09:36:28.096Z,8408.00
2017-09-21T09:37:28.066Z,8664.00
2017-09-21T09:38:28.034Z,9252.00
2017-09-21T09:39:27.999Z,9580.00
2017-09-21T09:40:27.967Z,9684.00
2017-09-21T09:41:27.935Z,9864.00
2017-09-21T09:42:27.904Z,10052.00
2017-09-21T09:43:27.869Z,10420.00
2017-09-21T09:44:27.841Z,10696.00
2017-09-21T09:45:27.804Z,10356.00
2017-09-21T09:46:27.785Z,8956.00
2017-09-21T09:47:27.748Z,9016.00
2017-09-21T09:48:27.709Z,8628.00
2017-09-21T09:49:27.681Z,7724.00
2017-09-21T09:50:27.646Z,7448.00
2017-09-21T09:51:27.695Z,7736.00
2017-09-21T09:52:27.578Z,8188.00
2017-09-21T09:53:27.612Z,8704.00
2017-09-21T09:54:27.558Z,9328.00
2017-09-21T09:55:27.485Z,10016.00
2017-09-21T09:56:27.459Z,12048.00
2017-09-21T09:57:27.420Z,11932.00
2017-09-21T09:58:27.402Z,12864.00
2017-09-21T09:59:27.367Z,12644.00
2017-09-21T10:00:27.324Z,12332.00
2017-09-21T10:01:27.303Z,12152.00
2017-09-21T10:02:27.262Z,11060.00
2017-09-21T10:03:27.232Z,11308.00
2017-09-21T10:04:27.194Z,10748.00
2017-09-21T10:05:27.172Z,10756.00
2017-09-21T10:06:27.136Z,10576.00
2017-09-21T10:07:27.101Z,10540.00
2017-09-21T10:08:27.071Z,10640.00
2017-09-21T10:09:27.046Z,9652.00
2017-09-21T10:10:27.120Z,11008.00
2017-09-21T10:11:26.979Z,9708.00
2017-09-21T10:12:26.944Z,10020.00
2017-09-21T10:13:27.071Z,10168.00
2017-09-21T10:14:26.928Z,10556.00
2017-09-21T10:15:26.858Z,10936.00
2017-09-21T10:16:26.872Z,11540.00
2017-09-21T10:17:26.827Z,11604.00
2017-09-21T10:18:26.794Z,11248.00
2017-09-21T10:19:26.728Z,11128.00
2017-09-21T10:20:26.736Z,11944.00
2017-09-21T10:21:26.674Z,11532.00
2017-09-21T10:22:26.646Z,11568.00
2017-09-21T10:23:26.609Z,11712.00
2017-09-21T10:24:26.596Z,11824.00
2017-09-21T10:25:26.529Z,12084.00
2017-09-21T10:26:26.548Z,12296.00
2017-09-21T10:27:26.491Z,11708.00
2017-09-21T10:28:26.449Z,10952.00
2017-09-21T10:29:26.403Z,11708.00
2017-09-21T10:30:26.450Z,11432.00
2017-09-21T10:31:26.342Z,11404.00
2017-09-21T10:32:26.390Z,11384.00
2017-09-21T10:33:26.334Z,11648.00
2017-09-21T10:34:26.252Z,12168.00
2017-09-21T10:35:26.362Z,12964.00
2017-09-21T10:36:26.182Z,14188.00
2017-09-21T10:37:26.217Z,13232.00
2017-09-21T10:38:26.121Z,13568.00
2017-09-21T10:39:26.097Z,14216.00
2017-09-21T10:40:26.191Z,14784.00
2017-09-21T10:41:26.031Z,15236.00
2017-09-21T10:42:25.991Z,15176.00
2017-09-21T10:43:25.961Z,14940.00
2017-09-21T10:44:25.928Z,14460.00
2017-09-21T10:45:25.903Z,14032.00
2017-09-21T10:46:25.867Z,13412.00
2017-09-21T10:47:25.840Z,12676.00
2017-09-21T10:48:25.806Z,12088.00
2017-09-21T10:49:25.776Z,11532.00
2017-09-21T10:50:25.753Z,11316.00
2017-09-21T10:51:25.724Z,11356.00
2017-09-21T10:52:25.681Z,11412.00
2017-09-21T10:53:25.651Z,11368.00
2017-09-21T10:54:25.620Z,11312.00
2017-09-21T10:55:25.590Z,11404.00
2017-09-21T10:56:25.569Z,11372.00
2017-09-21T10:57:25.543Z,11404.00
2017-09-21T10:58:25.510Z,11452.00
2017-09-21T10:59:25.469Z,11484.00
2017-09-21T11:00:25.445Z,11700.00
2017-09-21T11:01:25.411Z,12016.00
2017-09-21T11:02:25.373Z,12348.00
2017-09-21T11:03:25.368Z,12536.00
2017-09-21T11:04:25.319Z,12704.00
2017-09-21T11:05:25.291Z,12708.00
2017-09-21T11:06:25.254Z,12684.00
2017-09-21T11:07:25.221Z,12708.00
2017-09-21T11:08:25.188Z,12640.00
2017-09-21T11:09:25.173Z,12508.00
2017-09-21T11:10:25.133Z,12444.00
2017-09-21T11:11:25.132Z,12460.00
2017-09-21T11:12:25.064Z,12388.00
2017-09-21T11:13:25.033Z,12168.00
2017-09-21T11:14:25.004Z,11912.00
2017-09-21T11:15:24.975Z,11800.00
2017-09-21T11:16:24.943Z,11996.00
2017-09-21T11:17:24.917Z,12152.00
2017-09-21T11:18:24.904Z,12268.00
2017-09-21T11:19:24.852Z,12604.00
2017-09-21T11:20:24.820Z,12752.00
2017-09-21T11:21:24.788Z,12932.00
2017-09-21T11:22:24.761Z,13036.00
2017-09-21T11:23:24.727Z,12940.00
2017-09-21T11:24:24.706Z,12752.00
2017-09-21T11:25:24.677Z,12536.00
2017-09-21T11:26:24.658Z,12256.00
2017-09-21T11:27:24.616Z,11972.00
2017-09-21T11:28:24.583Z,11700.00
2017-09-21T11:29:24.759Z,11440.00
2017-09-21T11:30:24.516Z,11068.00
2017-09-21T11:31:24.482Z,10776.00
2017-09-21T11:32:24.451Z,10496.00
2017-09-21T11:33:24.422Z,10188.00
2017-09-21T11:34:24.397Z,9860.00
2017-09-21T11:35:24.361Z,9504.00
2017-09-21T11:36:24.331Z,9128.00
2017-09-21T11:37:24.309Z,8608.00
2017-09-21T11:38:24.270Z,8160.00
2017-09-21T11:39:24.248Z,7972.00
2017-09-21T11:40:24.215Z,7764.00
2017-09-21T11:41:24.188Z,7448.00
2017-09-21T11:42:24.146Z,7008.00
2017-09-21T11:43:24.114Z,6512.00
2017-09-21T11:44:24.092Z,6000.00
2017-09-21T11:45:24.075Z,5504.00
2017-09-21T11:46:24.023Z,5064.00
2017-09-21T11:47:24.052Z,4728.00
2017-09-21T11:48:23.967Z,4532.00
2017-09-21T11:49:23.974Z,4416.00
2017-09-21T11:50:23.897Z,4368.00
2017-09-21T11:51:23.874Z,4368.00
2017-09-21T11:52:23.841Z,4392.00
2017-09-21T11:53:23.805Z,4400.00
2017-09-21T11:54:23.789Z,4396.00
2017-09-21T11:55:23.741Z,4388.00
2017-09-21T11:56:23.784Z,4364.00
2017-09-21T11:57:23.690Z,4344.00
2017-09-21T11:58:23.660Z,4280.00
2017-09-21T11:59:23.618Z,4256.00
2017-09-21T12:00:23.582Z,4352.00
2017-09-21T12:01:23.558Z,4372.00
2017-09-21T12:02:23.546Z,4332.00
2017-09-21T12:03:23.518Z,4236.00
2017-09-21T12:04:23.468Z,4144.00
2017-09-21T12:05:23.423Z,4084.00
2017-09-21T12:06:23.396Z,4052.00
2017-09-21T12:07:23.369Z,4012.00
2017-09-21T12:08:23.336Z,3960.00
2017-09-21T12:09:23.297Z,3908.00
2017-09-21T12:10:23.280Z,3852.00
2017-09-21T12:11:23.233Z,3784.00
2017-09-21T12:12:23.202Z,3788.00
2017-09-21T12:13:23.169Z,3812.00
2017-09-21T12:14:23.138Z,3780.00
2017-09-21T12:15:23.108Z,3740.00
2017-09-21T12:16:23.087Z,3700.00
2017-09-21T12:17:23.041Z,3668.00
2017-09-21T12:18:23.011Z,3660.00
2017-09-21T12:19:22.989Z,3656.00
2017-09-21T12:20:22.960Z,3660.00
2017-09-21T12:21:22.916Z,3636.00
2017-09-21T12:22:22.880Z,3580.00
2017-09-21T12:23:22.850Z,3548.00
2017-09-21T12:24:22.819Z,3572.00
2017-09-21T12:25:22.793Z,3636.00
2017-09-21T12:26:22.754Z,3680.00
2017-09-21T12:27:22.731Z,3676.00